createdAt,value
2022-10-08T00:00:29.928Z,35.54
2022-10-08T00:01:01.325Z,35.55
2022-10-08T00:01:32.819Z,35.62
2022-10-08T00:02:04.303Z,35.51
2022-10-08T00:02:35.728Z,35.52
2022-10-08T00:03:07.189Z,35.56
2022-10-08T00:03:38.705Z,35.41
2022-10-08T00:04:10.151Z,35.69
2022-10-08T00:04:41.556Z,35.57
2022-10-08T00:05:12.967Z,35.59
2022-10-08T00:05:44.374Z,35.61
2022-10-08T00:06:15.725Z,35.49
2022-10-08T00:06:47.139Z,35.65
2022-10-08T00:07:18.551Z,35.51
2022-10-08T00:07:49.899Z,35.59
2022-10-08T00:08:21.293Z,35.58
2022-10-08T00:08:52.644Z,35.61
2022-10-08T00:09:24.003Z,35.59
2022-10-08T00:09:55.339Z,35.44
2022-10-08T00:10:26.938Z,35.71
2022-10-08T00:10:58.412Z,35.72
2022-10-08T00:11:29.771Z,35.56
2022-10-08T00:12:01.198Z,35.66
2022-10-08T00:12:32.660Z,35.78
2022-10-08T00:13:04.491Z,35.64
2022-10-08T00:13:35.825Z,35.55
2022-10-08T00:14:07.209Z,35.68
2022-10-08T00:14:38.571Z,35.50
2022-10-08T00:15:09.949Z,35.46
2022-10-08T00:15:41.316Z,35.36
2022-10-08T00:16:12.816Z,35.68
2022-10-08T00:16:44.320Z,35.76
2022-10-08T00:17:15.707Z,35.83
2022-10-08T00:17:47.088Z,35.72
2022-10-08T00:18:18.430Z,35.64
2022-10-08T00:18:49.832Z,35.66
2022-10-08T00:19:21.220Z,35.78
2022-10-08T00:19:52.643Z,35.58
2022-10-08T00:20:24.020Z,35.77
2022-10-08T00:20:55.385Z,35.59
2022-10-08T00:21:26.908Z,35.80
2022-10-08T00:21:58.520Z,35.71
2022-10-08T00:22:29.942Z,35.57
2022-10-08T00:23:01.352Z,35.61
2022-10-08T00:23:32.815Z,35.63
2022-10-08T00:24:04.216Z,35.64
2022-10-08T00:24:35.558Z,35.68
2022-10-08T00:25:06.955Z,35.66
2022-10-08T00:25:38.326Z,35.56
2022-10-08T00:26:09.685Z,35.45
2022-10-08T00:26:43.791Z,35.42
2022-10-08T00:27:15.822Z,35.78
2022-10-08T00:27:47.318Z,35.52
2022-10-08T00:28:18.707Z,35.52
2022-10-08T00:28:50.170Z,35.63
2022-10-08T00:29:21.582Z,35.53
2022-10-08T00:29:53.036Z,35.27
2022-10-08T00:30:24.662Z,35.44
2022-10-08T00:30:56.136Z,35.54
2022-10-08T00:31:27.593Z,35.39
2022-10-08T00:31:59.253Z,35.49
2022-10-08T00:32:30.662Z,35.58
2022-10-08T00:33:02.111Z,35.40
2022-10-08T00:33:33.529Z,35.49
2022-10-08T00:34:04.936Z,35.54
2022-10-08T00:34:36.498Z,35.54
2022-10-08T00:35:07.905Z,35.38
2022-10-08T00:35:39.315Z,35.38
2022-10-08T00:36:10.673Z,35.74
2022-10-08T00:36:42.043Z,35.51
2022-10-08T00:37:13.415Z,35.37
2022-10-08T00:37:44.815Z,35.53
2022-10-08T00:38:16.328Z,35.62
2022-10-08T00:38:47.849Z,35.50
2022-10-08T00:39:19.238Z,35.43
2022-10-08T00:39:50.661Z,35.64
2022-10-08T00:40:22.102Z,35.59
2022-10-08T00:40:53.453Z,35.69
2022-10-08T00:41:24.874Z,35.42
2022-10-08T00:41:56.275Z,35.59
2022-10-08T00:42:27.659Z,35.39
2022-10-08T00:42:59.049Z,35.39
2022-10-08T00:43:30.409Z,35.34
2022-10-08T00:44:01.775Z,35.50
2022-10-08T00:44:33.141Z,35.49
2022-10-08T00:45:04.513Z,35.32
2022-10-08T00:45:35.938Z,35.46
2022-10-08T00:46:07.442Z,35.53
2022-10-08T00:46:38.889Z,35.55
2022-10-08T00:47:10.339Z,35.45
2022-10-08T00:47:41.789Z,35.63
2022-10-08T00:48:13.164Z,35.43
2022-10-08T00:48:44.548Z,35.36
2022-10-08T00:49:15.872Z,35.50
2022-10-08T00:49:47.234Z,35.72
2022-10-08T00:50:18.617Z,35.51
2022-10-08T00:50:49.995Z,35.62
2022-10-08T00:51:21.360Z,35.58
2022-10-08T00:51:52.776Z,35.67
2022-10-08T00:52:24.128Z,35.33
2022-10-08T00:52:55.605Z,35.50
2022-10-08T00:53:26.971Z,35.59
2022-10-08T00:53:58.342Z,35.59
2022-10-08T00:54:30.972Z,35.40
2022-10-08T00:55:02.437Z,35.59
2022-10-08T00:55:33.864Z,35.64
2022-10-08T00:56:05.285Z,35.67
2022-10-08T00:56:36.645Z,35.50
2022-10-08T00:57:08.029Z,35.64
2022-10-08T00:57:39.531Z,35.50
2022-10-08T00:58:10.930Z,35.68
2022-10-08T00:58:42.300Z,35.48
2022-10-08T00:59:13.704Z,35.59
2022-10-08T00:59:45.025Z,35.35
2022-10-08T01:00:16.380Z,35.47
2022-10-08T01:00:47.857Z,35.43
2022-10-08T01:01:19.388Z,35.44
2022-10-08T01:01:50.860Z,35.73
2022-10-08T01:02:22.286Z,35.48
2022-10-08T01:02:53.665Z,35.53
2022-10-08T01:03:25.064Z,35.44
2022-10-08T01:03:56.450Z,35.34
2022-10-08T01:04:27.815Z,35.40
2022-10-08T01:04:59.288Z,35.30
2022-10-08T01:05:30.658Z,35.50
2022-10-08T01:06:02.032Z,35.50
2022-10-08T01:06:33.474Z,35.50
2022-10-08T01:07:04.860Z,35.46
2022-10-08T01:07:36.258Z,35.52
2022-10-08T01:08:07.632Z,35.28
2022-10-08T01:08:38.981Z,35.28
2022-10-08T01:09:11.087Z,35.57
2022-10-08T01:09:43.680Z,35.29
2022-10-08T01:10:15.054Z,35.43
2022-10-08T01:10:46.445Z,35.30
2022-10-08T01:11:17.822Z,35.33
2022-10-08T01:11:49.297Z,35.09
2022-10-08T01:12:20.693Z,35.21
2022-10-08T01:12:52.046Z,35.20
2022-10-08T01:13:23.430Z,35.19
2022-10-08T01:13:54.752Z,35.40
2022-10-08T01:14:26.116Z,35.19
2022-10-08T01:14:57.496Z,35.42
2022-10-08T01:15:28.963Z,35.36
2022-10-08T01:16:00.382Z,35.29
2022-10-08T01:16:31.859Z,35.24
2022-10-08T01:17:03.413Z,35.26
2022-10-08T01:17:34.813Z,35.32
2022-10-08T01:18:06.123Z,35.25
2022-10-08T01:18:37.442Z,35.16
2022-10-08T01:19:08.836Z,35.40
2022-10-08T01:19:40.207Z,35.29
2022-10-08T01:20:11.590Z,35.36
2022-10-08T01:20:42.926Z,35.32
2022-10-08T01:21:14.320Z,35.10
2022-10-08T01:21:45.670Z,35.21
2022-10-08T01:22:17.128Z,35.12
2022-10-08T01:22:48.987Z,35.41
2022-10-08T01:23:20.632Z,35.30
2022-10-08T01:23:52.050Z,35.36
2022-10-08T01:24:23.423Z,35.15
2022-10-08T01:24:54.772Z,35.20
2022-10-08T01:25:26.217Z,35.42
2022-10-08T01:25:57.562Z,35.28
2022-10-08T01:26:28.940Z,35.24
2022-10-08T01:27:00.369Z,35.19
2022-10-08T01:27:31.748Z,35.42
2022-10-08T01:28:03.208Z,35.27
2022-10-08T01:28:34.676Z,35.48
2022-10-08T01:29:06.091Z,35.49
2022-10-08T01:29:37.471Z,35.06
2022-10-08T01:30:08.869Z,35.17
2022-10-08T01:30:40.309Z,35.31
2022-10-08T01:31:11.796Z,35.35
2022-10-08T01:31:43.252Z,35.20
2022-10-08T01:32:14.701Z,35.13
2022-10-08T01:32:46.372Z,35.20
2022-10-08T01:33:17.822Z,35.40
2022-10-08T01:33:49.187Z,35.33
2022-10-08T01:34:20.617Z,35.37
2022-10-08T01:34:51.994Z,35.10
2022-10-08T01:35:23.390Z,35.11
2022-10-08T01:35:54.853Z,35.37
2022-10-08T01:36:26.227Z,35.10
2022-10-08T01:36:57.788Z,35.10
2022-10-08T01:37:29.187Z,35.29
2022-10-08T01:38:00.553Z,35.15
2022-10-08T01:38:31.918Z,35.14
2022-10-08T01:39:03.340Z,35.17
2022-10-08T01:39:34.707Z,35.27
2022-10-08T01:40:06.115Z,35.29
2022-10-08T01:40:37.473Z,35.08
2022-10-08T01:41:08.844Z,35.13
2022-10-08T01:41:40.219Z,35.32
2022-10-08T01:42:11.609Z,35.29
2022-10-08T01:42:42.993Z,35.44
2022-10-08T01:43:14.375Z,35.49
2022-10-08T01:43:45.757Z,35.49
2022-10-08T01:44:17.133Z,35.36
2022-10-08T01:44:48.515Z,35.38
2022-10-08T01:45:19.875Z,35.30
2022-10-08T01:45:51.345Z,35.37
2022-10-08T01:46:22.724Z,35.31
2022-10-08T01:46:54.092Z,35.27
2022-10-08T01:47:25.523Z,35.10
2022-10-08T01:47:56.933Z,35.18
2022-10-08T01:48:28.276Z,35.33
2022-10-08T01:48:59.600Z,35.39
2022-10-08T01:49:31.029Z,35.33
2022-10-08T01:50:02.401Z,35.21
2022-10-08T01:50:33.808Z,35.20
2022-10-08T01:51:05.246Z,35.10
2022-10-08T01:51:36.680Z,35.40
2022-10-08T01:52:08.061Z,35.32
2022-10-08T01:52:39.475Z,35.26
2022-10-08T01:53:10.893Z,35.11
2022-10-08T01:53:42.268Z,35.37
2022-10-08T01:54:13.697Z,35.04
2022-10-08T01:54:45.040Z,35.31
2022-10-08T01:55:16.400Z,35.10
2022-10-08T01:55:47.763Z,35.34
2022-10-08T01:56:19.126Z,35.42
2022-10-08T01:56:50.506Z,35.31
2022-10-08T01:57:21.906Z,35.38
2022-10-08T01:57:53.297Z,34.97
2022-10-08T01:58:24.703Z,35.07
2022-10-08T01:58:56.099Z,35.08
2022-10-08T01:59:27.454Z,35.09
2022-10-08T01:59:58.797Z,35.17
2022-10-08T02:00:30.126Z,35.07
2022-10-08T02:01:01.593Z,35.12
2022-10-08T02:01:33.081Z,35.26
2022-10-08T02:02:04.558Z,35.16
2022-10-08T02:02:36.061Z,34.97
2022-10-08T02:03:07.444Z,35.26
2022-10-08T02:03:38.820Z,34.95
2022-10-08T02:04:10.239Z,35.07
2022-10-08T02:04:41.595Z,35.27
2022-10-08T02:05:13.012Z,35.17
2022-10-08T02:05:44.423Z,35.20
2022-10-08T02:06:15.785Z,35.13
2022-10-08T02:06:47.134Z,34.89
2022-10-08T02:07:18.528Z,34.94
2022-10-08T02:07:49.919Z,35.24
2022-10-08T02:08:21.325Z,34.91
2022-10-08T02:08:52.704Z,35.20
2022-10-08T02:09:24.049Z,35.20
2022-10-08T02:09:55.410Z,34.97
2022-10-08T02:10:26.828Z,34.88
2022-10-08T02:10:58.189Z,35.03
2022-10-08T02:11:29.589Z,34.80
2022-10-08T02:12:01.022Z,35.08
2022-10-08T02:12:32.373Z,35.11
2022-10-08T02:13:03.820Z,34.79
2022-10-08T02:13:35.172Z,34.89
2022-10-08T02:14:06.612Z,35.06
2022-10-08T02:14:38.130Z,34.78
2022-10-08T02:15:09.474Z,35.04
2022-10-08T02:15:40.873Z,35.04
2022-10-08T02:16:12.238Z,34.92
2022-10-08T02:16:43.838Z,35.05
2022-10-08T02:17:15.264Z,34.87
2022-10-08T02:17:46.639Z,34.90
2022-10-08T02:18:18.098Z,35.16
2022-10-08T02:18:49.518Z,35.15
2022-10-08T02:19:20.991Z,34.90
2022-10-08T02:19:52.352Z,35.11
2022-10-08T02:20:23.782Z,34.93
2022-10-08T02:20:55.224Z,35.20
2022-10-08T02:21:26.635Z,35.19
2022-10-08T02:21:58.023Z,34.89
2022-10-08T02:22:29.380Z,34.91
2022-10-08T02:23:00.933Z,35.21
2022-10-08T02:23:32.311Z,34.93
2022-10-08T02:24:03.714Z,34.88
2022-10-08T02:24:35.104Z,35.20
2022-10-08T02:25:06.510Z,35.23
2022-10-08T02:25:37.882Z,35.14
2022-10-08T02:26:09.239Z,35.15
2022-10-08T02:26:40.582Z,35.22
2022-10-08T02:27:11.977Z,34.92
2022-10-08T02:27:43.384Z,35.14
2022-10-08T02:28:14.812Z,35.17
2022-10-08T02:28:46.242Z,34.85
2022-10-08T02:29:17.689Z,34.82
2022-10-08T02:29:49.080Z,34.80
2022-10-08T02:30:20.434Z,34.82
2022-10-08T02:30:51.902Z,35.23
2022-10-08T02:31:23.389Z,34.97
2022-10-08T02:31:54.985Z,35.20
2022-10-08T02:32:26.396Z,35.00
2022-10-08T02:32:57.823Z,35.28
2022-10-08T02:33:29.161Z,34.90
2022-10-08T02:34:00.518Z,35.09
2022-10-08T02:34:31.836Z,35.10
2022-10-08T02:35:03.268Z,35.15
2022-10-08T02:35:34.634Z,34.94
2022-10-08T02:36:06.097Z,35.02
2022-10-08T02:36:37.446Z,35.08
2022-10-08T02:37:08.759Z,34.98
2022-10-08T02:37:40.184Z,35.06
2022-10-08T02:38:11.553Z,35.12
2022-10-08T02:38:42.878Z,35.18
2022-10-08T02:39:14.232Z,35.22
2022-10-08T02:39:45.624Z,34.88
2022-10-08T02:40:17.047Z,35.09
2022-10-08T02:40:48.402Z,35.19
2022-10-08T02:41:19.784Z,34.98
2022-10-08T02:41:51.250Z,35.15
2022-10-08T02:42:22.586Z,34.94
2022-10-08T02:42:53.918Z,34.84
2022-10-08T02:43:25.339Z,34.96
2022-10-08T02:43:56.694Z,34.94
2022-10-08T02:44:28.047Z,35.05
2022-10-08T02:44:59.387Z,35.21
2022-10-08T02:45:30.870Z,34.97
2022-10-08T02:46:02.254Z,34.94
2022-10-08T02:46:33.740Z,35.23
2022-10-08T02:47:05.118Z,35.11
2022-10-08T02:47:36.479Z,35.19
2022-10-08T02:48:07.883Z,35.10
2022-10-08T02:48:39.339Z,35.15
2022-10-08T02:49:10.760Z,34.98
2022-10-08T02:49:42.108Z,35.18
2022-10-08T02:50:13.499Z,34.82
2022-10-08T02:50:44.918Z,35.25
2022-10-08T02:51:16.334Z,35.04
2022-10-08T02:51:47.623Z,35.17
2022-10-08T02:52:19.021Z,35.13
2022-10-08T02:52:50.507Z,35.22
2022-10-08T02:53:21.881Z,35.18
2022-10-08T02:53:53.243Z,35.11
2022-10-08T02:54:24.625Z,34.95
2022-10-08T02:54:56.048Z,35.15
2022-10-08T02:55:27.416Z,34.99
2022-10-08T02:55:58.842Z,35.10
2022-10-08T02:56:30.218Z,35.18
2022-10-08T02:57:03.768Z,34.95
2022-10-08T02:57:38.593Z,35.20
2022-10-08T02:58:09.966Z,34.93
2022-10-08T02:58:41.364Z,35.16
2022-10-08T02:59:12.710Z,34.95
2022-10-08T02:59:44.082Z,35.15
2022-10-08T03:00:15.456Z,35.21
2022-10-08T03:00:46.839Z,34.96
2022-10-08T03:01:18.254Z,35.13
2022-10-08T03:01:49.707Z,34.96
2022-10-08T03:02:21.173Z,34.90
2022-10-08T03:02:52.594Z,34.95
2022-10-08T03:03:23.953Z,35.03
2022-10-08T03:03:55.471Z,35.12
2022-10-08T03:04:26.840Z,34.91
2022-10-08T03:04:58.261Z,35.11
2022-10-08T03:05:29.760Z,34.92
2022-10-08T03:06:01.081Z,35.16
2022-10-08T03:06:32.557Z,34.87
2022-10-08T03:07:03.925Z,35.13
2022-10-08T03:07:35.262Z,35.09
2022-10-08T03:08:06.687Z,34.75
2022-10-08T03:08:38.038Z,35.03
2022-10-08T03:09:09.403Z,34.95
2022-10-08T03:09:40.774Z,35.02
2022-10-08T03:10:12.122Z,35.05
2022-10-08T03:10:43.501Z,35.02
2022-10-08T03:11:14.905Z,35.14
2022-10-08T03:11:46.284Z,35.06
2022-10-08T03:12:17.689Z,34.87
2022-10-08T03:12:49.661Z,34.85
2022-10-08T03:13:21.319Z,35.01
2022-10-08T03:13:52.678Z,35.11
2022-10-08T03:14:24.171Z,34.99
2022-10-08T03:14:55.560Z,35.14
2022-10-08T03:15:26.940Z,35.04
2022-10-08T03:15:58.347Z,35.07
2022-10-08T03:16:29.786Z,34.94
2022-10-08T03:17:01.263Z,35.08
2022-10-08T03:17:32.688Z,34.92
2022-10-08T03:18:04.032Z,35.02
2022-10-08T03:18:35.407Z,34.95
2022-10-08T03:19:06.791Z,35.06
2022-10-08T03:19:38.184Z,35.15
2022-10-08T03:20:09.545Z,35.00
2022-10-08T03:20:40.875Z,35.11
2022-10-08T03:21:12.348Z,34.92
2022-10-08T03:21:43.763Z,34.92
2022-10-08T03:22:15.149Z,35.20
2022-10-08T03:22:46.840Z,34.85
2022-10-08T03:23:18.306Z,34.99
2022-10-08T03:23:49.636Z,35.25
2022-10-08T03:24:20.973Z,35.00
2022-10-08T03:24:56.581Z,35.13
2022-10-08T03:25:28.314Z,35.09
2022-10-08T03:25:59.793Z,35.13
2022-10-08T03:26:31.174Z,35.13
2022-10-08T03:27:02.583Z,35.14
2022-10-08T03:27:34.088Z,35.08
2022-10-08T03:28:05.520Z,35.01
2022-10-08T03:28:37.193Z,35.05
2022-10-08T03:29:08.690Z,35.22
2022-10-08T03:29:40.145Z,34.98
2022-10-08T03:30:11.534Z,35.07
2022-10-08T03:30:42.944Z,35.07
2022-10-08T03:31:14.291Z,35.09
2022-10-08T03:31:45.682Z,35.14
2022-10-08T03:32:17.025Z,35.13
2022-10-08T03:32:48.532Z,35.27
2022-10-08T03:33:20.397Z,35.23
2022-10-08T03:33:51.789Z,35.11
2022-10-08T03:34:23.305Z,35.20
2022-10-08T03:34:54.670Z,35.31
2022-10-08T03:35:26.057Z,35.08
2022-10-08T03:35:57.452Z,35.27
2022-10-08T03:36:28.834Z,35.17
2022-10-08T03:37:00.260Z,35.04
2022-10-08T03:37:31.672Z,35.17
2022-10-08T03:38:03.272Z,34.98
2022-10-08T03:38:34.678Z,35.41
2022-10-08T03:39:06.108Z,35.15
2022-10-08T03:39:37.588Z,35.35
2022-10-08T03:40:09.091Z,35.18
2022-10-08T03:40:40.511Z,35.24
2022-10-08T03:41:11.970Z,35.34
2022-10-08T03:41:43.537Z,35.25
2022-10-08T03:42:14.904Z,35.51
2022-10-08T03:42:46.466Z,35.38
2022-10-08T03:43:18.007Z,35.32
2022-10-08T03:43:49.359Z,35.48
2022-10-08T03:44:20.710Z,35.22
2022-10-08T03:44:52.189Z,35.45
2022-10-08T03:45:23.771Z,35.43
2022-10-08T03:45:55.223Z,35.43
2022-10-08T03:46:26.720Z,35.23
2022-10-08T03:46:58.222Z,35.43
2022-10-08T03:47:29.695Z,35.31
2022-10-08T03:48:01.149Z,35.35
2022-10-08T03:48:32.616Z,35.46
2022-10-08T03:49:04.119Z,35.68
2022-10-08T03:49:35.778Z,35.45
2022-10-08T03:50:07.193Z,35.46
2022-10-08T03:50:38.543Z,35.51
2022-10-08T03:51:09.955Z,35.42
2022-10-08T03:51:41.329Z,35.78
2022-10-08T03:52:12.721Z,35.56
2022-10-08T03:52:44.329Z,35.67
2022-10-08T03:53:15.813Z,35.69
2022-10-08T03:53:47.199Z,35.65
2022-10-08T03:54:18.591Z,35.74
2022-10-08T03:54:49.986Z,35.50
2022-10-08T03:55:21.403Z,35.51
2022-10-08T03:55:52.764Z,35.70
2022-10-08T03:56:24.121Z,35.82
2022-10-08T03:56:55.481Z,35.75
2022-10-08T03:57:26.864Z,35.61
2022-10-08T03:57:58.368Z,35.51
2022-10-08T03:58:29.755Z,35.67
2022-10-08T03:59:01.118Z,35.72
2022-10-08T03:59:32.549Z,35.55
2022-10-08T04:00:03.872Z,35.53
2022-10-08T04:00:35.376Z,35.75
2022-10-08T04:01:06.715Z,35.81
2022-10-08T04:01:38.135Z,35.77
2022-10-08T04:02:09.537Z,35.62
2022-10-08T04:02:41.038Z,35.65
2022-10-08T04:03:12.498Z,35.77
2022-10-08T04:03:43.835Z,35.76
2022-10-08T04:04:15.198Z,35.54
2022-10-08T04:04:46.599Z,35.78
2022-10-08T04:05:18.048Z,35.86
2022-10-08T04:05:49.475Z,35.76
2022-10-08T04:06:20.894Z,35.67
2022-10-08T04:06:52.252Z,35.84
2022-10-08T04:07:23.618Z,35.62
2022-10-08T04:07:55.056Z,35.64
2022-10-08T04:08:26.404Z,35.77
2022-10-08T04:08:57.781Z,35.84
2022-10-08T04:09:29.156Z,35.70
2022-10-08T04:10:00.574Z,35.73
2022-10-08T04:10:31.996Z,35.85
2022-10-08T04:11:03.590Z,36.01
2022-10-08T04:11:34.953Z,36.04
2022-10-08T04:12:06.371Z,36.03
2022-10-08T04:12:37.756Z,35.92
2022-10-08T04:13:09.125Z,36.09
2022-10-08T04:13:40.518Z,35.91
2022-10-08T04:14:11.887Z,35.99
2022-10-08T04:14:43.266Z,35.97
2022-10-08T04:15:14.626Z,36.13
2022-10-08T04:15:46.011Z,35.94
2022-10-08T04:16:17.479Z,36.06
2022-10-08T04:16:48.969Z,36.11
2022-10-08T04:17:20.388Z,36.03
2022-10-08T04:17:51.777Z,35.89
2022-10-08T04:18:23.117Z,35.94
2022-10-08T04:18:54.607Z,35.86
2022-10-08T04:19:26.008Z,36.18
2022-10-08T04:19:57.352Z,35.96
2022-10-08T04:20:28.692Z,36.03
2022-10-08T04:21:00.111Z,35.95
2022-10-08T04:21:31.484Z,36.13
2022-10-08T04:22:02.820Z,36.23
2022-10-08T04:22:34.145Z,36.27
2022-10-08T04:23:05.558Z,36.12
2022-10-08T04:23:37.022Z,36.29
2022-10-08T04:24:08.472Z,36.28
2022-10-08T04:24:39.909Z,36.22
2022-10-08T04:25:14.507Z,36.21
2022-10-08T04:25:45.867Z,36.40
2022-10-08T04:26:17.259Z,36.21
2022-10-08T04:26:48.619Z,36.33
2022-10-08T04:27:19.967Z,36.19
2022-10-08T04:27:51.321Z,36.29
2022-10-08T04:28:22.773Z,36.29
2022-10-08T04:28:54.280Z,36.27
2022-10-08T04:29:25.701Z,36.09
2022-10-08T04:29:57.110Z,36.33
2022-10-08T04:30:28.450Z,36.27
2022-10-08T04:30:59.856Z,36.22
2022-10-08T04:31:31.444Z,36.25
2022-10-08T04:32:02.864Z,36.29
2022-10-08T04:32:34.307Z,36.48
2022-10-08T04:33:05.763Z,36.47
2022-10-08T04:33:37.139Z,36.41
2022-10-08T04:34:08.578Z,36.61
2022-10-08T04:34:39.955Z,36.50
2022-10-08T04:35:11.312Z,36.78
2022-10-08T04:35:42.689Z,36.57
2022-10-08T04:36:14.045Z,36.52
2022-10-08T04:36:45.400Z,36.48
2022-10-08T04:37:16.814Z,36.53
2022-10-08T04:37:48.331Z,36.62
2022-10-08T04:38:19.991Z,36.66
2022-10-08T04:38:51.415Z,36.65
2022-10-08T04:39:22.902Z,36.67
2022-10-08T04:39:54.232Z,36.71
2022-10-08T04:40:25.624Z,36.58
2022-10-08T04:40:56.995Z,36.84
2022-10-08T04:41:28.369Z,36.77
2022-10-08T04:41:59.707Z,36.58
2022-10-08T04:42:31.067Z,36.79
2022-10-08T04:43:02.497Z,36.46
2022-10-08T04:43:33.934Z,36.58
2022-10-08T04:44:05.283Z,36.63
2022-10-08T04:44:36.717Z,36.71
2022-10-08T04:45:08.137Z,36.70
2022-10-08T04:45:39.506Z,36.79
2022-10-08T04:46:10.912Z,36.90
2022-10-08T04:46:42.428Z,36.81
2022-10-08T04:47:13.857Z,36.85
2022-10-08T04:47:45.235Z,36.88
2022-10-08T04:48:16.627Z,36.93
2022-10-08T04:48:48.053Z,36.87
2022-10-08T04:49:19.443Z,36.86
2022-10-08T04:49:50.851Z,36.88
2022-10-08T04:50:22.272Z,36.79
2022-10-08T04:50:53.595Z,36.93
2022-10-08T04:51:24.993Z,36.91
2022-10-08T04:51:56.364Z,36.80
2022-10-08T04:52:27.704Z,36.91
2022-10-08T04:52:59.077Z,37.15
2022-10-08T04:53:30.409Z,36.87
2022-10-08T04:54:01.764Z,37.09
2022-10-08T04:54:33.238Z,37.08
2022-10-08T04:55:04.653Z,37.14
2022-10-08T04:55:36.088Z,37.18
2022-10-08T04:56:07.470Z,37.08
2022-10-08T04:56:38.828Z,37.25
2022-10-08T04:57:10.190Z,37.12
2022-10-08T04:57:41.608Z,37.19
2022-10-08T04:58:12.946Z,36.97
2022-10-08T04:58:44.350Z,37.16
2022-10-08T04:59:15.741Z,37.16
2022-10-08T05:00:13.238Z,37.13
2022-10-08T05:00:39.117Z,37.13
2022-10-08T05:01:10.574Z,37.19
2022-10-08T05:01:42.001Z,37.08
2022-10-08T05:02:13.447Z,37.30
2022-10-08T05:02:45.132Z,37.12
2022-10-08T05:03:16.833Z,37.23
2022-10-08T05:03:48.214Z,37.34
2022-10-08T05:04:19.648Z,37.12
2022-10-08T05:04:51.050Z,37.42
2022-10-08T05:05:22.395Z,37.54
2022-10-08T05:05:53.790Z,37.29
2022-10-08T05:06:25.136Z,37.24
2022-10-08T05:06:56.462Z,37.17
2022-10-08T05:07:27.786Z,37.05
2022-10-08T05:07:59.171Z,37.07
2022-10-08T05:08:30.591Z,37.13
2022-10-08T05:09:01.990Z,37.27
2022-10-08T05:09:33.532Z,37.30
2022-10-08T05:10:04.875Z,37.12
2022-10-08T05:10:36.297Z,37.24
2022-10-08T05:11:07.668Z,37.34
2022-10-08T05:11:39.035Z,37.31
2022-10-08T05:12:10.424Z,37.16
2022-10-08T05:12:41.816Z,37.30
2022-10-08T05:13:13.199Z,37.37
2022-10-08T05:13:44.582Z,37.21
2022-10-08T05:14:15.959Z,37.21
2022-10-08T05:14:47.435Z,37.31
2022-10-08T05:15:18.904Z,37.16
2022-10-08T05:15:50.346Z,37.18
2022-10-08T05:16:21.924Z,37.27
2022-10-08T05:16:53.364Z,37.27
2022-10-08T05:17:24.773Z,37.17
2022-10-08T05:17:56.127Z,37.36
2022-10-08T05:18:27.518Z,37.23
2022-10-08T05:18:58.907Z,37.13
2022-10-08T05:19:30.263Z,37.13
2022-10-08T05:20:01.648Z,37.19
2022-10-08T05:20:32.982Z,37.33
2022-10-08T05:21:04.339Z,37.40
2022-10-08T05:21:35.708Z,37.52
2022-10-08T05:22:07.105Z,37.41
2022-10-08T05:22:38.538Z,37.48
2022-10-08T05:23:09.942Z,37.29
2022-10-08T05:23:41.319Z,37.42
2022-10-08T05:24:12.673Z,37.34
2022-10-08T05:24:44.015Z,37.26
2022-10-08T05:25:15.467Z,37.39
2022-10-08T05:25:46.853Z,37.49
2022-10-08T05:26:18.236Z,37.11
2022-10-08T05:26:58.864Z,37.20
2022-10-08T05:27:30.663Z,37.43
2022-10-08T05:28:02.076Z,37.41
2022-10-08T05:28:33.636Z,37.55
2022-10-08T05:29:05.120Z,37.52
2022-10-08T05:29:36.482Z,37.55
2022-10-08T05:30:07.961Z,37.34
2022-10-08T05:30:39.590Z,37.29
2022-10-08T05:31:11.301Z,37.25
2022-10-08T05:31:42.710Z,37.47
2022-10-08T05:32:14.093Z,37.19
2022-10-08T05:32:45.957Z,37.42
2022-10-08T05:33:17.451Z,37.55
2022-10-08T05:33:48.896Z,37.42
2022-10-08T05:34:20.455Z,37.47
2022-10-08T05:34:51.890Z,37.55
2022-10-08T05:35:23.321Z,37.55
2022-10-08T05:35:54.710Z,37.67
2022-10-08T05:36:26.037Z,37.42
2022-10-08T05:36:57.697Z,37.59
2022-10-08T05:37:29.116Z,37.77
2022-10-08T05:38:00.551Z,37.51
2022-10-08T05:38:34.913Z,37.57
2022-10-08T05:39:06.850Z,37.67
2022-10-08T05:39:38.218Z,37.77
2022-10-08T05:40:09.667Z,37.68
2022-10-08T05:40:41.222Z,37.81
2022-10-08T05:41:12.610Z,37.43
2022-10-08T05:41:44.023Z,37.63
2022-10-08T05:42:15.318Z,37.63
2022-10-08T05:42:46.907Z,37.77
2022-10-08T05:43:18.523Z,37.50
2022-10-08T05:43:50.087Z,37.64
2022-10-08T05:44:21.656Z,37.51
2022-10-08T05:44:53.081Z,37.58
2022-10-08T05:45:24.471Z,37.52
2022-10-08T05:45:55.942Z,37.69
2022-10-08T05:46:27.438Z,37.51
2022-10-08T05:46:58.950Z,37.62
2022-10-08T05:47:30.406Z,37.65
2022-10-08T05:48:01.765Z,37.44
2022-10-08T05:48:33.111Z,37.53
2022-10-08T05:49:04.490Z,37.48
2022-10-08T05:49:35.986Z,37.55
2022-10-08T05:50:07.599Z,37.57
2022-10-08T05:50:39.008Z,37.32
2022-10-08T05:51:10.484Z,37.60
2022-10-08T05:51:42.102Z,37.64
2022-10-08T05:52:13.614Z,37.67
2022-10-08T05:52:45.452Z,37.68
2022-10-08T05:53:17.026Z,37.78
2022-10-08T05:53:48.418Z,37.55
2022-10-08T05:54:19.723Z,37.34
2022-10-08T05:54:51.058Z,37.41
2022-10-08T05:55:22.459Z,37.55
2022-10-08T05:55:53.880Z,37.70
2022-10-08T05:56:25.310Z,37.54
2022-10-08T05:56:56.830Z,37.38
2022-10-08T05:57:28.201Z,37.66
2022-10-08T05:57:59.523Z,37.55
2022-10-08T05:58:30.859Z,37.45
2022-10-08T05:59:02.261Z,37.67
2022-10-08T05:59:33.792Z,37.61
2022-10-08T06:00:05.179Z,37.63
2022-10-08T06:00:36.522Z,37.70
2022-10-08T06:01:07.922Z,37.57
2022-10-08T06:01:39.363Z,37.64
2022-10-08T06:02:10.752Z,37.70
2022-10-08T06:02:42.236Z,37.62
2022-10-08T06:03:13.671Z,37.61
2022-10-08T06:03:45.162Z,37.84
2022-10-08T06:04:16.596Z,37.59
2022-10-08T06:04:48.062Z,37.67
2022-10-08T06:05:19.499Z,37.80
2022-10-08T06:05:50.923Z,37.79
2022-10-08T06:06:22.313Z,37.65
2022-10-08T06:06:53.776Z,37.56
2022-10-08T06:07:25.159Z,37.65
2022-10-08T06:07:56.554Z,37.55
2022-10-08T06:08:27.906Z,37.90
2022-10-08T06:08:59.329Z,37.55
2022-10-08T06:09:30.729Z,37.71
2022-10-08T06:10:02.078Z,37.73
2022-10-08T06:10:33.555Z,37.66
2022-10-08T06:11:04.907Z,37.62
2022-10-08T06:11:36.240Z,37.68
2022-10-08T06:12:07.633Z,37.80
2022-10-08T06:12:39.022Z,37.82
2022-10-08T06:13:10.397Z,37.78
2022-10-08T06:13:41.750Z,37.63
2022-10-08T06:14:13.092Z,37.71
2022-10-08T06:14:44.427Z,37.71
2022-10-08T06:15:15.829Z,37.79
2022-10-08T06:15:47.228Z,37.82
2022-10-08T06:16:18.743Z,37.50
2022-10-08T06:16:50.119Z,37.70
2022-10-08T06:17:21.533Z,37.56
2022-10-08T06:17:52.894Z,37.88
2022-10-08T06:18:24.267Z,37.99
2022-10-08T06:18:55.715Z,37.87
2022-10-08T06:19:27.098Z,37.94
2022-10-08T06:19:58.403Z,37.96
2022-10-08T06:20:31.959Z,37.85
2022-10-08T06:21:03.639Z,37.99
2022-10-08T06:21:34.973Z,37.88
2022-10-08T06:22:06.310Z,37.85
2022-10-08T06:22:37.705Z,37.53
2022-10-08T06:23:09.086Z,37.86
2022-10-08T06:23:40.497Z,37.83
2022-10-08T06:24:11.833Z,37.67
2022-10-08T06:24:43.248Z,37.94
2022-10-08T06:25:14.589Z,37.83
2022-10-08T06:25:45.906Z,37.71
2022-10-08T06:26:17.255Z,37.93
2022-10-08T06:26:48.598Z,37.81
2022-10-08T06:27:19.981Z,37.72
2022-10-08T06:27:51.438Z,37.76
2022-10-08T06:28:22.829Z,37.73
2022-10-08T06:28:54.259Z,37.79
2022-10-08T06:29:25.660Z,37.84
2022-10-08T06:29:57.038Z,37.60
2022-10-08T06:30:28.509Z,37.75
2022-10-08T06:30:59.907Z,37.88
2022-10-08T06:31:31.381Z,37.79
2022-10-08T06:32:02.859Z,37.67
2022-10-08T06:32:34.229Z,37.48
2022-10-08T06:33:05.590Z,37.61
2022-10-08T06:33:36.986Z,37.77
2022-10-08T06:34:08.372Z,37.66
2022-10-08T06:34:39.745Z,37.47
2022-10-08T06:35:11.089Z,37.50
2022-10-08T06:35:42.520Z,37.84
2022-10-08T06:36:13.911Z,37.69
2022-10-08T06:36:45.256Z,37.73
2022-10-08T06:37:16.633Z,37.96
2022-10-08T06:37:48.004Z,37.86
2022-10-08T06:38:19.366Z,37.76
2022-10-08T06:38:50.804Z,37.85
2022-10-08T06:39:22.211Z,37.62
2022-10-08T06:39:53.677Z,37.66
2022-10-08T06:40:25.155Z,37.74
2022-10-08T06:40:56.558Z,37.69
2022-10-08T06:41:27.889Z,37.61
2022-10-08T06:41:59.351Z,37.83
2022-10-08T06:42:30.855Z,37.69
2022-10-08T06:43:02.377Z,37.86
2022-10-08T06:43:33.790Z,37.65
2022-10-08T06:44:05.230Z,37.79
2022-10-08T06:44:36.586Z,37.60
2022-10-08T06:45:07.949Z,37.66
2022-10-08T06:45:39.323Z,37.52